createdAt,value
2019-05-09T00:01:25.688Z,4.47
2019-05-09T00:03:55.046Z,4.63
2019-05-09T00:06:24.473Z,3.57
2019-05-09T00:08:53.815Z,4.27
2019-05-09T00:11:24.581Z,3.47
2019-05-09T00:13:54.100Z,3.57
2019-05-09T00:16:23.730Z,3.30
2019-05-09T00:18:54.333Z,3.10
2019-05-09T00:21:25.335Z,4.70
2019-05-09T00:23:54.675Z,5.30
2019-05-09T00:26:24.041Z,4.60
2019-05-09T00:29:11.417Z,2.70
2019-05-09T00:31:48.155Z,3.83
2019-05-09T00:34:19.169Z,5.27
2019-05-09T00:36:48.542Z,3.73
2019-05-09T00:39:17.907Z,4.23
2019-05-09T00:41:47.272Z,3.23
2019-05-09T00:44:24.355Z,3.67
2019-05-09T00:46:58.339Z,5.13
2019-05-09T00:49:28.895Z,4.07
2019-05-09T00:51:58.256Z,5.07
2019-05-09T00:54:27.638Z,4.27
2019-05-09T00:56:57.004Z,3.33
2019-05-09T00:59:26.395Z,3.30
2019-05-09T01:01:55.925Z,2.10
2019-05-09T01:04:25.285Z,3.33
2019-05-09T01:06:54.651Z,3.67
2019-05-09T01:09:24.330Z,4.93
2019-05-09T01:11:53.685Z,3.00
2019-05-09T01:14:23.603Z,5.37
2019-05-09T01:16:53.613Z,5.80
2019-05-09T01:19:23.363Z,4.77
2019-05-09T01:21:54.318Z,4.43
2019-05-09T01:24:23.756Z,4.97
2019-05-09T01:26:54.173Z,4.43
2019-05-09T01:29:23.666Z,4.53
2019-05-09T01:31:54.692Z,3.07
2019-05-09T01:34:25.665Z,4.90
2019-05-09T01:37:03.654Z,6.07
2019-05-09T01:39:34.114Z,3.33
2019-05-09T01:42:03.702Z,4.80
2019-05-09T01:44:33.612Z,2.40
2019-05-09T01:47:03.965Z,3.23
2019-05-09T01:49:34.119Z,6.80
2019-05-09T01:52:03.887Z,6.63
2019-05-09T01:54:34.830Z,2.40
2019-05-09T01:57:04.263Z,3.83
2019-05-09T01:59:34.206Z,3.27
2019-05-09T02:02:08.794Z,4.37
2019-05-09T02:04:35.664Z,4.53
2019-05-09T02:07:05.078Z,3.90
2019-05-09T02:09:34.604Z,6.03
2019-05-09T02:12:04.358Z,3.57
2019-05-09T02:14:43.541Z,2.37
2019-05-09T02:17:19.899Z,4.23
2019-05-09T02:19:49.249Z,6.07
2019-05-09T02:22:34.466Z,3.00
2019-05-09T02:25:06.777Z,4.70
2019-05-09T02:27:36.161Z,4.63
2019-05-09T02:30:14.768Z,3.63
2019-05-09T02:32:44.750Z,4.07
2019-05-09T02:35:13.132Z,3.87
2019-05-09T02:37:42.497Z,2.90
2019-05-09T02:40:12.625Z,2.30
2019-05-09T02:42:42.061Z,4.37
2019-05-09T02:45:11.656Z,3.33
2019-05-09T02:47:41.042Z,3.87
2019-05-09T02:50:11.945Z,2.97
2019-05-09T02:52:41.275Z,4.20
2019-05-09T02:55:11.002Z,2.17
2019-05-09T02:57:41.116Z,2.47
2019-05-09T03:00:21.150Z,2.90
2019-05-09T03:02:59.640Z,5.07
2019-05-09T03:05:29.834Z,2.77
2019-05-09T03:07:59.398Z,5.33
2019-05-09T03:10:29.497Z,3.10
2019-05-09T03:12:59.592Z,3.83
2019-05-09T03:15:29.521Z,3.70
2019-05-09T03:17:59.933Z,4.17
2019-05-09T03:20:40.001Z,5.13
2019-05-09T03:23:09.490Z,3.00
2019-05-09T03:25:40.743Z,2.73
2019-05-09T03:28:14.388Z,4.33
2019-05-09T03:30:45.386Z,3.63
2019-05-09T03:33:14.774Z,4.93
2019-05-09T03:35:44.132Z,6.13
2019-05-09T03:38:13.477Z,4.37
2019-05-09T03:40:42.823Z,4.13
2019-05-09T03:43:12.181Z,5.80
2019-05-09T03:45:43.197Z,3.27
2019-05-09T03:48:19.926Z,3.57
2019-05-09T03:50:49.299Z,3.63
2019-05-09T03:53:18.653Z,4.60
2019-05-09T03:55:48.784Z,5.47
2019-05-09T03:58:21.407Z,5.23
2019-05-09T04:00:50.769Z,4.07
2019-05-09T04:03:20.455Z,4.20
2019-05-09T04:05:59.157Z,3.77
2019-05-09T04:08:20.828Z,5.57
2019-05-09T04:10:53.714Z,5.53
2019-05-09T04:13:24.794Z,4.73
2019-05-09T04:15:54.175Z,8.17
2019-05-09T04:18:23.559Z,6.23
2019-05-09T04:20:52.913Z,8.93
2019-05-09T04:23:22.262Z,5.47
2019-05-09T04:25:53.272Z,8.90
2019-05-09T04:28:22.641Z,8.20
2019-05-09T04:30:51.998Z,7.93
2019-05-09T04:36:08.486Z,8.30
2019-05-09T04:38:39.929Z,6.53
2019-05-09T04:41:08.867Z,4.47
2019-05-09T04:43:39.911Z,7.50
2019-05-09T04:46:12.972Z,7.77
2019-05-09T04:48:40.305Z,8.43
2019-05-09T04:51:09.698Z,7.57
2019-05-09T04:53:39.988Z,7.80
2019-05-09T04:56:19.936Z,6.53
2019-05-09T04:58:49.302Z,8.40
2019-05-09T05:01:23.045Z,7.53
2019-05-09T05:03:54.052Z,11.80
2019-05-09T05:06:23.408Z,7.47
2019-05-09T05:08:52.873Z,7.50
2019-05-09T05:11:22.230Z,10.23
2019-05-09T05:13:51.570Z,6.87
2019-05-09T05:16:20.941Z,6.67
2019-05-09T05:18:50.316Z,8.23
2019-05-09T05:21:20.496Z,5.57
2019-05-09T05:23:57.741Z,9.03
2019-05-09T05:26:27.714Z,7.33
2019-05-09T05:28:58.078Z,6.87
2019-05-09T05:31:28.551Z,10.40
2019-05-09T05:34:05.397Z,7.80
2019-05-09T05:36:34.743Z,8.10
2019-05-09T05:39:07.511Z,7.03
2019-05-09T05:41:37.856Z,8.00
2019-05-09T05:44:08.616Z,9.20
2019-05-09T05:46:48.323Z,8.20
2019-05-09T05:49:18.660Z,5.67
2019-05-09T05:51:50.751Z,5.97
2019-05-09T05:54:21.896Z,5.30
2019-05-09T05:56:51.267Z,5.60
2019-05-09T05:59:20.631Z,6.27
2019-05-09T06:01:49.992Z,4.83
2019-05-09T06:04:19.327Z,5.97
2019-05-09T06:06:48.707Z,5.00
2019-05-09T06:09:18.938Z,6.93
2019-05-09T06:11:48.823Z,3.97
2019-05-09T06:14:18.670Z,8.80
2019-05-09T06:16:48.812Z,7.53
2019-05-09T06:19:18.400Z,4.13
2019-05-09T06:21:52.082Z,7.10
2019-05-09T06:24:19.270Z,8.07
2019-05-09T06:26:48.617Z,8.17
2019-05-09T06:29:18.069Z,4.47
2019-05-09T06:31:48.454Z,3.83
2019-05-09T06:34:18.715Z,7.27
2019-05-09T06:36:49.073Z,5.05
2019-05-09T06:42:05.393Z,6.17
2019-05-09T06:44:48.222Z,5.75
2019-05-09T06:47:22.247Z,7.08
2019-05-09T06:49:53.245Z,2.50
2019-05-09T06:52:22.607Z,4.90
2019-05-09T06:54:51.945Z,4.72
2019-05-09T06:57:21.292Z,4.30
2019-05-09T06:59:50.685Z,3.27
2019-05-09T07:02:25.397Z,3.98
2019-05-09T07:04:58.176Z,4.45
2019-05-09T07:07:32.168Z,4.00
2019-05-09T07:10:07.557Z,4.05
2019-05-09T07:12:37.956Z,3.02
2019-05-09T07:15:08.873Z,3.98
2019-05-09T07:17:38.790Z,5.97
2019-05-09T07:20:08.699Z,3.52
2019-05-09T07:22:39.772Z,2.83
2019-05-09T07:25:11.483Z,3.67
2019-05-09T07:27:42.446Z,2.65
2019-05-09T07:30:15.080Z,2.25
2019-05-09T07:33:01.114Z,3.40
2019-05-09T07:35:30.487Z,4.08
2019-05-09T07:37:59.830Z,3.10
2019-05-09T07:40:30.742Z,2.72
2019-05-09T07:43:00.211Z,4.05
2019-05-09T07:45:30.539Z,3.55
2019-05-09T07:47:59.881Z,2.40
2019-05-09T07:50:29.245Z,4.67
2019-05-09T07:52:58.591Z,2.95
2019-05-09T07:55:27.939Z,3.12
2019-05-09T07:57:59.090Z,4.30
2019-05-09T08:00:33.574Z,5.15
2019-05-09T08:03:02.943Z,3.70
2019-05-09T08:05:32.439Z,2.30
2019-05-09T08:08:01.804Z,2.25
2019-05-09T08:10:33.226Z,4.28
2019-05-09T08:13:02.226Z,3.90
2019-05-09T08:15:31.589Z,4.10
2019-05-09T08:18:00.944Z,2.83
2019-05-09T08:20:30.267Z,2.98
2019-05-09T08:23:02.122Z,2.10
2019-05-09T08:25:30.676Z,4.15
2019-05-09T08:28:00.018Z,3.55
2019-05-09T08:30:35.920Z,3.55
2019-05-09T08:33:00.435Z,3.98
2019-05-09T08:35:30.496Z,3.92
2019-05-09T08:37:59.828Z,2.77
2019-05-09T08:40:29.213Z,4.83
2019-05-09T08:42:59.118Z,2.83
2019-05-09T08:45:31.573Z,3.37
2019-05-09T08:47:59.730Z,3.43
2019-05-09T08:50:38.886Z,2.40
2019-05-09T08:53:08.378Z,3.22
2019-05-09T08:55:38.483Z,4.97
2019-05-09T08:58:08.237Z,2.42
2019-05-09T09:00:39.000Z,3.37
2019-05-09T09:03:08.581Z,2.42
2019-05-09T09:05:38.338Z,1.83
2019-05-09T09:08:08.473Z,3.50
2019-05-09T09:10:38.672Z,4.17
2019-05-09T09:13:09.009Z,2.27
2019-05-09T09:16:02.417Z,3.43
2019-05-09T09:18:09.471Z,2.93
2019-05-09T09:20:38.879Z,3.67
2019-05-09T09:23:09.114Z,3.25
2019-05-09T09:25:39.097Z,2.17
2019-05-09T09:28:09.121Z,2.87
2019-05-09T09:30:39.153Z,3.40
2019-05-09T09:33:13.135Z,2.90
2019-05-09T09:35:39.610Z,2.70
2019-05-09T09:38:09.534Z,1.55
2019-05-09T09:40:39.001Z,2.58
2019-05-09T09:43:09.383Z,2.80
2019-05-09T09:45:38.897Z,2.90
2019-05-09T09:48:09.255Z,3.40
2019-05-09T09:50:38.737Z,2.52
2019-05-09T09:53:08.933Z,2.65
2019-05-09T09:55:38.805Z,2.35
2019-05-09T09:58:08.453Z,1.07
2019-05-09T10:00:58.698Z,3.05
2019-05-09T10:03:28.268Z,2.27
2019-05-09T10:08:44.465Z,2.02
2019-05-09T10:11:14.793Z,2.17
2019-05-09T10:13:44.155Z,2.37
2019-05-09T10:16:33.046Z,3.10
2019-05-09T10:19:04.040Z,2.77
2019-05-09T10:21:35.040Z,4.90
2019-05-09T10:24:04.659Z,2.87
2019-05-09T10:26:34.302Z,1.90
2019-05-09T10:29:03.660Z,1.67
2019-05-09T10:31:33.007Z,1.90
2019-05-09T10:34:02.360Z,3.17
2019-05-09T10:36:32.686Z,3.33
2019-05-09T10:39:02.041Z,2.17
2019-05-09T10:41:32.502Z,2.80
2019-05-09T10:44:03.447Z,3.30
2019-05-09T10:46:52.069Z,2.05
2019-05-09T10:49:09.143Z,2.95
2019-05-09T10:51:38.484Z,2.85
2019-05-09T10:54:08.363Z,2.02
2019-05-09T10:56:38.506Z,3.02
2019-05-09T10:59:08.087Z,2.65
2019-05-09T11:01:38.309Z,2.58
2019-05-09T11:04:08.776Z,4.65
2019-05-09T11:06:38.748Z,3.00
2019-05-09T11:09:09.727Z,2.35
2019-05-09T11:11:39.268Z,2.37
2019-05-09T11:14:08.859Z,2.50
2019-05-09T11:16:45.892Z,6.30
2019-05-09T11:19:09.303Z,2.52
2019-05-09T11:21:39.305Z,2.33
2019-05-09T11:24:08.729Z,3.08
2019-05-09T11:26:39.942Z,3.02
2019-05-09T11:29:09.123Z,2.85
2019-05-09T11:31:38.699Z,2.12
2019-05-09T11:34:09.069Z,2.90
2019-05-09T11:36:38.499Z,2.80
2019-05-09T11:39:10.718Z,2.00
2019-05-09T11:41:39.927Z,2.87
2019-05-09T11:44:09.290Z,2.75
2019-05-09T11:46:38.649Z,1.62
2019-05-09T11:49:08.624Z,1.60
2019-05-09T11:51:37.987Z,3.20
2019-05-09T11:54:09.112Z,1.75
2019-05-09T11:56:39.570Z,1.67
2019-05-09T11:59:08.934Z,1.10
2019-05-09T12:01:39.839Z,1.85
2019-05-09T12:04:09.639Z,1.37
2019-05-09T12:06:38.998Z,2.75
2019-05-09T12:09:09.423Z,2.33
2019-05-09T12:11:44.006Z,1.15
2019-05-09T12:14:09.845Z,2.65
2019-05-09T12:16:39.192Z,2.52
2019-05-09T12:19:08.555Z,2.25
2019-05-09T12:21:46.492Z,3.33
2019-05-09T12:24:09.229Z,1.27
2019-05-09T12:26:39.248Z,2.05
2019-05-09T12:29:08.894Z,1.35
2019-05-09T12:31:38.866Z,1.70
2019-05-09T12:34:09.107Z,2.25
2019-05-09T12:36:39.847Z,2.02
2019-05-09T12:39:09.456Z,2.37
2019-05-09T12:41:38.792Z,2.55
2019-05-09T12:44:08.807Z,2.45
2019-05-09T12:46:39.337Z,1.45
2019-05-09T12:49:10.008Z,1.30
2019-05-09T12:54:27.959Z,1.67
2019-05-09T12:56:59.153Z,0.88
2019-05-09T12:59:28.697Z,1.00
2019-05-09T13:01:58.271Z,1.70
2019-05-09T13:04:28.207Z,0.93
2019-05-09T13:06:58.684Z,4.47
2019-05-09T13:09:28.701Z,6.95
2019-05-09T13:11:58.107Z,3.90
2019-05-09T13:14:28.567Z,5.00
2019-05-09T13:17:14.806Z,1.50
2019-05-09T13:19:48.021Z,1.98
2019-05-09T13:22:18.477Z,3.12
2019-05-09T13:24:47.951Z,1.05
2019-05-09T13:27:18.983Z,1.10
2019-05-09T13:29:49.255Z,1.22
2019-05-09T13:32:18.983Z,1.77
2019-05-09T13:34:48.805Z,1.67
2019-05-09T13:37:18.920Z,1.85
2019-05-09T13:39:48.393Z,2.35
2019-05-09T13:42:19.648Z,1.05
2019-05-09T13:44:48.785Z,1.20
2019-05-09T13:47:18.157Z,2.77
2019-05-09T13:49:48.440Z,1.15
2019-05-09T13:52:18.150Z,1.98
2019-05-09T13:54:48.228Z,1.77
2019-05-09T13:57:18.799Z,2.15
2019-05-09T13:59:48.794Z,0.95
2019-05-09T14:02:18.942Z,2.45
2019-05-09T14:04:48.859Z,2.80
2019-05-09T14:07:19.361Z,2.05
2019-05-09T14:09:48.871Z,2.98
2019-05-09T14:12:18.220Z,3.22
2019-05-09T14:14:47.618Z,1.22
2019-05-09T14:17:19.111Z,1.75
2019-05-09T14:19:51.186Z,1.42
2019-05-09T14:22:20.100Z,1.52
2019-05-09T14:24:50.512Z,1.20
2019-05-09T14:27:20.832Z,2.70
2019-05-09T14:29:50.180Z,0.93
2019-05-09T14:32:19.537Z,1.10
2019-05-09T14:34:48.904Z,1.20
2019-05-09T14:37:18.290Z,1.57
2019-05-09T14:39:57.768Z,2.20
2019-05-09T14:42:19.013Z,1.95
2019-05-09T14:44:49.390Z,1.75
2019-05-09T14:47:18.754Z,2.90
2019-05-09T14:49:49.822Z,2.67
2019-05-09T14:52:19.212Z,1.10
2019-05-09T14:54:48.593Z,1.10
2019-05-09T14:57:17.958Z,1.35
2019-05-09T14:59:47.310Z,1.30
2019-05-09T15:02:17.909Z,1.15
2019-05-09T15:04:48.567Z,1.45
2019-05-09T15:07:19.419Z,1.17
2019-05-09T15:09:49.012Z,0.75
2019-05-09T15:12:18.660Z,0.68
2019-05-09T15:14:48.105Z,1.62
2019-05-09T15:17:18.552Z,1.55
2019-05-09T15:19:57.547Z,1.05
2019-05-09T15:22:19.057Z,1.07
2019-05-09T15:24:48.402Z,1.52
2019-05-09T15:27:17.921Z,2.02
2019-05-09T15:29:48.623Z,1.72
2019-05-09T15:32:18.437Z,1.45
2019-05-09T15:34:47.784Z,3.05
2019-05-09T15:37:18.678Z,2.15
2019-05-09T15:39:48.506Z,1.12
2019-05-09T15:42:18.365Z,1.37
2019-05-09T15:44:47.820Z,1.32
2019-05-09T15:47:24.546Z,1.32
2019-05-09T15:49:53.905Z,1.80
2019-05-09T15:52:23.272Z,2.52
2019-05-09T15:54:52.642Z,1.37
2019-05-09T15:57:22.016Z,1.57
2019-05-09T15:59:51.477Z,1.80
2019-05-09T16:02:20.809Z,2.87
2019-05-09T16:04:50.183Z,1.67
2019-05-09T16:07:19.522Z,2.98
2019-05-09T16:09:48.896Z,4.53
2019-05-09T16:12:18.588Z,1.35
2019-05-09T16:14:48.722Z,1.80
2019-05-09T16:17:19.150Z,1.40
2019-05-09T16:19:49.691Z,2.62
2019-05-09T16:22:19.240Z,1.57
2019-05-09T16:24:48.776Z,2.17
2019-05-09T16:27:18.080Z,1.83
2019-05-09T16:29:48.592Z,2.33
2019-05-09T16:32:19.049Z,1.35
2019-05-09T16:34:48.407Z,1.60
2019-05-09T16:37:17.796Z,1.57
2019-05-09T16:39:47.725Z,2.73
2019-05-09T16:42:17.113Z,2.53
2019-05-09T16:44:48.115Z,1.65
2019-05-09T16:47:21.857Z,2.98
2019-05-09T16:49:48.587Z,1.22
2019-05-09T16:52:18.064Z,2.72
2019-05-09T16:54:50.303Z,2.75
2019-05-09T16:57:19.608Z,2.08
2019-05-09T16:59:48.956Z,2.00
2019-05-09T17:02:24.503Z,1.95
2019-05-09T17:04:49.415Z,3.20
2019-05-09T17:07:18.780Z,2.90
2019-05-09T17:09:48.577Z,2.60
2019-05-09T17:12:18.624Z,2.83
2019-05-09T17:14:48.118Z,1.80
2019-05-09T17:17:17.960Z,1.60
2019-05-09T17:19:48.052Z,2.02
2019-05-09T17:22:19.296Z,2.55
2019-05-09T17:24:49.312Z,4.90
2019-05-09T17:27:19.021Z,5.47
2019-05-09T17:29:48.488Z,3.35
2019-05-09T17:32:18.411Z,2.00
2019-05-09T17:34:47.771Z,2.60
2019-05-09T17:37:17.715Z,2.02
2019-05-09T17:39:48.307Z,2.40
2019-05-09T17:42:18.312Z,2.75
2019-05-09T17:44:49.039Z,2.37
2019-05-09T17:47:19.366Z,1.60
2019-05-09T17:49:48.714Z,2.70
2019-05-09T17:52:18.388Z,4.22
2019-05-09T17:54:48.552Z,4.97
2019-05-09T17:57:18.837Z,2.27
2019-05-09T17:59:48.977Z,5.12
2019-05-09T18:02:18.425Z,2.67
2019-05-09T18:04:48.184Z,4.20
2019-05-09T18:07:18.558Z,3.93
2019-05-09T18:09:48.561Z,5.50
2019-05-09T18:12:19.030Z,7.20
2019-05-09T18:14:49.478Z,3.13
2019-05-09T18:17:18.915Z,3.23
2019-05-09T18:19:48.297Z,4.10
2019-05-09T18:22:18.617Z,3.87
2019-05-09T18:24:48.344Z,2.63
2019-05-09T18:27:18.854Z,2.50
2019-05-09T18:29:48.309Z,3.70
2019-05-09T18:32:19.314Z,7.67
2019-05-09T18:34:48.732Z,3.10
2019-05-09T18:37:18.105Z,9.80
2019-05-09T18:39:48.452Z,2.90
2019-05-09T18:42:17.999Z,9.03
2019-05-09T18:44:47.719Z,3.07
2019-05-09T18:47:18.511Z,3.60
2019-05-09T18:49:47.909Z,2.27
2019-05-09T18:52:17.264Z,2.13
2019-05-09T18:54:47.425Z,2.23
2019-05-09T18:57:18.264Z,6.13
2019-05-09T18:59:47.633Z,3.87
2019-05-09T19:02:17.100Z,4.10
2019-05-09T19:04:46.461Z,5.07
2019-05-09T19:07:22.590Z,3.83
2019-05-09T19:09:48.723Z,5.23
2019-05-09T19:12:18.090Z,3.03
2019-05-09T19:14:48.324Z,5.53
2019-05-09T19:17:19.348Z,2.43
2019-05-09T19:19:55.907Z,3.07
2019-05-09T19:22:25.285Z,4.90
2019-05-09T19:24:54.666Z,5.83
2019-05-09T19:27:24.038Z,3.60
2019-05-09T19:29:53.428Z,3.07
2019-05-09T19:32:23.916Z,3.40
2019-05-09T19:34:53.322Z,3.97
2019-05-09T19:37:22.711Z,6.67
2019-05-09T19:39:52.081Z,4.63
2019-05-09T19:42:21.471Z,7.33
2019-05-09T19:44:50.880Z,6.10
2019-05-09T19:47:20.265Z,5.87
2019-05-09T19:49:49.631Z,8.13
2019-05-09T19:52:19.014Z,7.23
2019-05-09T19:54:48.389Z,9.03
2019-05-09T19:57:17.787Z,6.93
2019-05-09T19:59:47.126Z,7.87
2019-05-09T20:02:16.482Z,7.33
2019-05-09T20:04:45.897Z,8.67
2019-05-09T20:07:15.239Z,10.77
2019-05-09T20:09:46.292Z,10.03
2019-05-09T20:12:17.298Z,10.07
2019-05-09T20:14:48.290Z,13.33
2019-05-09T20:17:17.624Z,9.93
2019-05-09T20:19:46.997Z,10.23
2019-05-09T20:22:16.356Z,13.63
2019-05-09T20:24:45.732Z,12.70
2019-05-09T20:27:15.083Z,11.73
2019-05-09T20:29:44.453Z,9.93
2019-05-09T20:32:13.805Z,14.57
2019-05-09T20:34:43.157Z,11.53
2019-05-09T20:37:12.533Z,12.43
2019-05-09T20:39:42.102Z,12.50
2019-05-09T20:42:11.627Z,9.87
2019-05-09T20:44:41.186Z,13.83
2019-05-09T20:47:10.733Z,10.70
2019-05-09T20:49:40.290Z,10.00
2019-05-09T20:52:09.845Z,9.90
2019-05-09T20:54:39.420Z,12.93
2019-05-09T20:57:08.973Z,10.87
2019-05-09T20:59:38.516Z,9.77
2019-05-09T21:02:08.057Z,10.87
2019-05-09T21:04:37.600Z,10.10
2019-05-09T21:07:07.225Z,11.57
2019-05-09T21:09:36.791Z,15.80
2019-05-09T21:12:06.370Z,10.50
2019-05-09T21:14:35.905Z,10.80
2019-05-09T21:17:06.561Z,11.67
2019-05-09T21:19:36.098Z,11.53
2019-05-09T21:22:05.677Z,12.30
2019-05-09T21:24:35.212Z,13.57
2019-05-09T21:27:04.773Z,11.93
2019-05-09T21:29:35.073Z,12.53
2019-05-09T21:32:04.657Z,13.07
2019-05-09T21:37:21.832Z,14.27
2019-05-09T21:39:51.186Z,12.47
2019-05-09T21:42:20.562Z,18.10
2019-05-09T21:44:49.943Z,15.87
2019-05-09T21:47:19.333Z,13.70
2019-05-09T21:49:48.696Z,12.43
2019-05-09T21:52:18.079Z,15.63
2019-05-09T21:54:47.419Z,13.70
2019-05-09T21:57:16.828Z,19.03
2019-05-09T21:59:46.191Z,15.70
2019-05-09T22:02:15.906Z,16.60
2019-05-09T22:04:45.442Z,17.27
2019-05-09T22:07:14.966Z,16.73
2019-05-09T22:09:44.346Z,16.43
2019-05-09T22:12:13.800Z,17.53
2019-05-09T22:14:43.156Z,18.13
2019-05-09T22:17:14.157Z,17.13
2019-05-09T22:19:43.665Z,22.83
2019-05-09T22:22:13.099Z,17.30
2019-05-09T22:24:42.450Z,18.40
2019-05-09T22:27:11.850Z,16.70
2019-05-09T22:29:41.189Z,16.47
2019-05-09T22:32:10.542Z,13.57
2019-05-09T22:34:39.900Z,14.20
2019-05-09T22:37:09.281Z,15.07
2019-05-09T22:39:38.653Z,16.97
2019-05-09T22:42:08.067Z,16.87
2019-05-09T22:44:37.436Z,13.80
2019-05-09T22:47:06.811Z,15.53
2019-05-09T22:49:37.193Z,16.30
2019-05-09T22:52:06.573Z,17.77
2019-05-09T22:54:35.918Z,16.87
2019-05-09T22:57:05.279Z,16.37
2019-05-09T22:59:34.661Z,16.40
2019-05-09T23:02:07.046Z,17.90
2019-05-09T23:04:35.093Z,17.70
2019-05-09T23:07:04.613Z,15.77
2019-05-09T23:09:33.983Z,15.53
2019-05-09T23:12:03.354Z,12.00
2019-05-09T23:14:32.707Z,16.27
2019-05-09T23:17:02.158Z,13.33
2019-05-09T23:19:31.525Z,12.77
2019-05-09T23:22:00.888Z,11.33
2019-05-09T23:24:34.833Z,13.00
2019-05-09T23:27:04.357Z,10.80
2019-05-09T23:29:33.710Z,9.37
2019-05-09T23:32:16.560Z,12.20
2019-05-09T23:34:45.904Z,14.77
2019-05-09T23:37:15.308Z,9.53
2019-05-09T23:39:46.323Z,11.60
2019-05-09T23:42:15.695Z,10.03
2019-05-09T23:44:45.040Z,10.97
2019-05-09T23:47:14.385Z,8.60
2019-05-09T23:49:43.727Z,9.90
2019-05-09T23:52:13.067Z,8.73
2019-05-09T23:55:00.228Z,9.87
2019-05-09T23:57:47.435Z,8.13
